.
WxDataArchive / Data Records for 2010-05-24
2010-05-23 May 2010 2010-05-25

Data Records for Monday, 24 May 2010

Time	Temp	Chill	HIndex	Humid	Dewpt	 Wind 	HiWind	WindDir	Rain 	Barom 
-----	----	-----	------	-----	-----	------	------	-------	-----	----- 
00:00	70.4	70.4	70.4	88	66.7	0	0	---	0.00	30.079 
00:05	70.3	70.3	70.3	88	66.6	0	0	---	0.00	30.079 
00:10	70.1	70.1	70.1	89	66.7	0	0	---	0.00	30.079 
00:15	69.9	69.9	69.9	89	66.5	0	0	---	0.00	30.082 
00:20	69.8	69.8	69.8	89	66.4	0	0	---	0.00	30.082 
00:25	69.6	69.6	69.6	89	66.2	0	0	---	0.00	30.082 
00:30	69.4	69.4	69.4	90	66.3	0	0	---	0.00	30.080 
00:35	69.3	69.3	69.3	90	66.2	0	0	---	0.00	30.080 
00:40	69.3	69.3	69.3	90	66.2	0	0	---	0.00	30.080 
00:45	69.1	69.1	69.1	91	66.4	0	0	---	0.00	30.079 
00:50	69.1	69.1	69.1	91	66.4	0	0	---	0.00	30.079 
00:55	68.9	68.9	68.9	91	66.2	0	0	---	0.00	30.079 
01:00	68.6	68.6	68.6	91	65.9	0	0	---	0.00	30.077 
01:05	68.6	68.6	68.6	91	65.9	0	0	---	0.00	30.077 
01:10	68.4	68.4	68.4	92	66.0	0	0	---	0.00	30.077 
01:15	68.4	68.4	68.4	92	66.0	0	0	---	0.00	30.078 
01:20	68.3	68.3	68.3	92	65.9	0	0	---	0.00	30.078 
01:25	68.1	68.1	68.1	92	65.7	0	0	---	0.00	30.078 
01:30	67.9	67.9	67.9	92	65.5	0	0	---	0.00	30.073 
01:35	67.8	67.8	67.8	92	65.4	0	0	---	0.00	30.073 
01:40	67.8	67.8	67.8	92	65.4	0	0	---	0.00	30.073 
01:45	67.6	67.6	67.6	92	65.2	0	0	---	0.00	30.071 
01:50	67.4	67.4	67.4	92	65.0	0	0	---	0.00	30.071 
01:55	67.4	67.4	67.4	92	65.0	0	0	---	0.00	30.071 
02:00	67.4	67.4	67.4	92	65.0	0	0	---	0.00	30.072 
02:05	67.3	67.3	67.3	92	64.9	0	0	---	0.00	30.072 
02:10	67.1	67.1	67.1	92	64.7	0	0	---	0.00	30.072 
02:15	66.9	66.9	66.9	92	64.5	0	0	---	0.00	30.068 
02:20	66.8	66.8	66.8	92	64.4	0	0	---	0.00	30.068 
02:25	66.8	66.8	66.8	92	64.4	0	0	---	0.00	30.068 
02:30	66.6	66.6	66.6	92	64.2	0	0	---	0.00	30.068 
02:35	66.4	66.4	66.4	92	64.0	0	0	---	0.00	30.068 
02:40	66.3	66.3	66.3	92	63.9	0	0	---	0.00	30.068 
02:45	66.1	66.1	66.1	92	63.7	0	0	---	0.00	30.070 
02:50	66.1	66.1	66.1	93	64.0	0	0	---	0.00	30.070 
02:55	66.0	66.0	66.0	93	63.9	0	0	---	0.00	30.070 
03:00	66.0	66.0	66.0	93	63.9	0	0	---	0.00	30.071 
03:05	65.8	65.8	65.8	93	63.7	0	0	---	0.00	30.071 
03:10	65.8	65.8	65.8	93	63.7	0	0	---	0.00	30.071 
03:15	65.6	65.6	65.6	93	63.5	0	0	---	0.00	30.072 
03:20	65.6	65.6	65.6	94	63.8	0	0	---	0.00	30.072 
03:25	65.6	65.6	65.6	94	63.8	0	0	---	0.00	30.072 
03:30	65.6	65.6	65.6	94	63.8	0	0	---	0.00	30.072 
03:35	65.5	65.5	65.5	93	63.4	0	0	---	0.00	30.072 
03:40	65.3	65.3	65.3	93	63.2	0	0	---	0.00	30.072 
03:45	65.2	65.2	65.2	93	63.1	0	0	---	0.00	30.075 
03:50	65.0	65.0	65.0	93	62.9	0	0	---	0.00	30.075 
03:55	64.8	64.8	64.8	93	62.7	0	0	---	0.00	30.075 
04:00	64.8	64.8	64.8	94	63.0	0	0	---	0.00	30.075 
04:05	64.7	64.7	64.7	94	62.9	0	0	---	0.00	30.075 
04:10	64.5	64.5	64.5	93	62.4	0	0	---	0.00	30.075 
04:15	64.3	64.3	64.3	94	62.5	0	0	---	0.00	30.075 
04:20	64.3	64.3	64.3	94	62.5	0	0	---	0.00	30.075 
04:25	64.2	64.2	64.2	94	62.4	0	0	---	0.00	30.075 
04:30	64.2	64.2	64.2	94	62.4	0	0	---	0.00	30.076 
04:35	64.0	64.0	64.0	94	62.2	0	0	---	0.00	30.076 
04:40	64.0	64.0	64.0	94	62.2	0	0	---	0.00	30.076 
04:45	64.0	64.0	64.0	94	62.2	0	0	---	0.00	30.075 
04:50	64.0	64.0	64.0	94	62.2	0	0	---	0.00	30.075 
04:55	63.9	63.9	63.9	94	62.1	0	0	---	0.00	30.075 
05:00	63.9	63.9	63.9	94	62.1	0	0	---	0.00	30.076 
05:05	63.9	63.9	63.9	94	62.1	0	0	---	0.00	30.076 
05:10	63.7	63.7	63.7	94	61.9	0	0	---	0.00	30.076 
05:15	63.7	63.7	63.7	94	61.9	0	0	---	0.00	30.077 
05:20	63.5	63.5	63.5	94	61.7	0	0	---	0.00	30.077 
05:25	63.5	63.5	63.5	94	61.7	0	0	---	0.00	30.077 
05:30	63.5	63.5	63.5	94	61.7	0	0	---	0.00	30.079 
05:35	63.4	63.4	63.4	94	61.6	0	0	---	0.00	30.079 
05:40	63.2	63.2	63.2	94	61.4	0	0	---	0.00	30.079 
05:45	63.2	63.2	63.2	94	61.4	0	0	---	0.00	30.087 
05:50	63.2	63.2	63.2	95	61.7	0	0	---	0.00	30.087 
05:55	63.1	63.1	63.1	95	61.6	0	0	---	0.00	30.087 
06:00	63.1	63.1	63.1	95	61.6	0	0	---	0.00	30.091 
06:05	63.1	63.1	63.1	95	61.6	0	0	---	0.00	30.091 
06:10	63.1	63.1	63.1	95	61.6	0	0	---	0.00	30.091 
06:15	63.1	63.1	63.1	95	61.6	0	0	---	0.00	30.100 
06:20	63.2	63.2	63.2	95	61.7	0	0	---	0.00	30.100 
06:25	63.7	63.7	63.7	96	62.5	0	0	---	0.00	30.100 
06:30	64.2	64.2	64.2	95	62.7	0	2	68	0.00	30.108 
06:35	64.3	64.3	64.3	95	62.8	0	3	68	0.00	30.108 
06:40	64.5	64.5	64.5	95	63.0	0	2	68	0.00	30.108 
06:45	64.5	64.5	64.5	94	62.7	0	2	68	0.00	30.111 
06:50	64.5	64.5	64.5	94	62.7	0	2	68	0.00	30.111 
06:55	64.7	64.7	64.7	94	62.9	0	1	68	0.00	30.111 
07:00	64.7	64.7	64.7	93	62.6	0	1	68	0.00	30.113 
07:05	64.7	64.7	64.7	93	62.6	0	2	68	0.00	30.113 
07:10	64.8	64.8	64.8	93	62.7	0	1	68	0.00	30.113 
07:15	65.0	65.0	65.0	93	62.9	0	2	68	0.00	30.121 
07:20	65.2	65.2	65.2	92	62.8	0	2	68	0.00	30.121 
07:25	65.6	65.6	65.6	92	63.2	0	1	68	0.00	30.121 
07:30	66.0	66.0	66.0	91	63.3	0	1	68	0.00	30.121 
07:35	66.3	66.3	66.3	90	63.3	0	1	68	0.00	30.121 
07:40	66.6	66.6	66.6	89	63.3	0	2	68	0.00	30.121 
07:45	66.8	66.8	66.8	88	63.1	1	3	68	0.00	30.125 
07:50	66.9	66.9	66.9	88	63.2	1	4	112	0.00	30.125 
07:55	67.1	67.1	67.1	87	63.1	1	2	112	0.00	30.125 
08:00	67.3	67.3	67.3	87	63.3	0	2	112	0.00	30.131 
08:05	67.4	67.4	67.4	87	63.4	0	2	112	0.00	30.131 
08:10	67.6	67.6	67.6	87	63.6	0	1	112	0.00	30.131 
08:15	67.9	67.9	67.9	87	63.9	0	1	112	0.00	30.135 
08:20	68.6	68.6	68.6	85	63.9	0	1	112	0.00	30.135 
08:25	69.4	69.4	69.4	84	64.3	0	2	112	0.00	30.135 
08:30	70.3	70.3	70.3	82	64.5	0	1	135	0.00	30.136 
08:35	70.6	70.6	70.6	80	64.1	0	2	135	0.00	30.136 
08:40	71.1	71.1	71.1	80	64.6	1	2	135	0.00	30.136 
08:45	71.6	71.6	71.6	78	64.4	0	2	135	0.00	30.135 
08:50	72.3	72.3	72.3	78	65.0	1	3	135	0.00	30.135 
08:55	72.7	72.7	72.7	78	65.4	1	3	112	0.00	30.135 
09:00	73.0	73.0	73.0	76	65.0	1	3	112	0.00	30.136 
09:05	73.2	73.2	73.2	77	65.5	1	3	112	0.00	30.136 
09:10	73.2	73.2	73.2	77	65.5	1	2	112	0.00	30.136 
09:15	73.0	73.0	73.0	78	65.7	1	3	112	0.00	30.145 
09:20	73.0	73.0	73.0	76	65.0	1	3	112	0.00	30.145 
09:25	73.3	73.3	73.3	77	65.6	0	2	112	0.00	30.145 
09:30	74.2	74.2	74.2	75	65.8	0	1	112	0.00	30.142 
09:35	74.9	74.9	74.9	73	65.6	1	4	112	0.00	30.142 
09:40	75.3	75.3	76.8	72	65.6	0	2	112	0.00	30.142 
09:45	75.3	75.3	76.7	73	66.0	0	3	112	0.00	30.145 
09:50	75.4	75.4	76.8	73	66.1	0	1	112	0.00	30.145 
09:55	75.3	75.3	76.5	75	66.8	1	3	112	0.00	30.145 
10:00	75.3	75.3	76.5	75	66.8	0	3	112	0.00	30.148 
10:05	75.6	75.6	77.0	73	66.3	0	2	112	0.00	30.148 
10:10	76.5	76.5	78.2	71	66.4	0	1	112	0.00	30.148 
10:15	77.4	77.4	79.3	70	66.8	0	2	112	0.00	30.145 
10:20	77.9	77.9	79.8	68	66.5	1	3	112	0.00	30.145 
10:25	77.9	77.9	79.9	69	66.9	2	3	112	0.00	30.145 
10:30	77.7	77.7	79.6	69	66.7	1	3	112	0.00	30.149 
10:35	77.9	77.9	79.9	70	67.3	1	3	112	0.00	30.149 
10:40	78.5	78.5	80.5	67	66.6	0	1	112	0.00	30.149 
10:45	79.0	79.0	81.3	69	67.9	0	0	---	0.00	30.148 
10:50	79.0	79.0	81.3	68	67.5	1	3	112	0.00	30.148 
10:55	78.8	78.8	80.9	67	66.9	1	2	112	0.00	30.148 
11:00	79.0	79.0	81.0	65	66.2	1	4	112	0.00	30.147 
11:05	79.2	79.2	81.4	66	66.8	1	4	68	0.00	30.147 
11:10	79.8	79.8	82.0	64	66.5	0	2	68	0.00	30.147 
11:15	80.5	80.5	83.1	65	67.6	1	4	68	0.00	30.149 
11:20	80.9	80.9	83.7	65	68.0	1	3	90	0.00	30.149 
11:25	81.1	81.1	83.5	62	66.8	1	2	112	0.00	30.149 
11:30	81.6	81.6	83.9	60	66.3	1	5	112	0.00	30.145 
11:35	82.0	82.0	84.8	62	67.7	1	3	112	0.00	30.145 
11:40	82.2	82.2	84.9	61	67.4	1	3	112	0.00	30.145 
11:45	82.6	82.6	84.9	58	66.3	1	3	90	0.00	30.143 
11:50	82.8	82.8	85.2	58	66.5	1	3	112	0.00	30.143 
11:55	83.0	83.0	85.5	58	66.7	1	4	68	0.00	30.143 
12:00	83.2	83.2	85.8	58	66.9	1	3	68	0.00	30.143 
12:05	83.4	83.4	85.8	57	66.5	1	4	90	0.00	30.143 
12:10	83.6	83.6	86.6	59	67.7	1	3	90	0.00	30.143 
12:15	83.6	83.6	86.4	58	67.2	1	4	90	0.00	30.138 
12:20	83.8	83.8	85.7	54	65.3	1	3	90	0.00	30.138 
12:25	84.1	84.1	86.7	56	66.7	1	3	90	0.00	30.138 
12:30	84.3	84.3	86.7	55	66.3	1	3	90	0.00	30.136 
12:35	84.3	84.3	86.7	55	66.3	1	5	90	0.00	30.136 
12:40	84.0	84.0	87.0	58	67.6	1	3	90	0.00	30.136 
12:45	84.0	84.0	86.3	55	66.1	3	6	112	0.00	30.134 
12:50	83.8	83.8	86.2	56	66.4	2	5	90	0.00	30.134 
12:55	83.8	83.8	86.2	56	66.4	1	4	90	0.00	30.134 
13:00	84.0	84.0	86.3	55	66.1	2	5	112	0.00	30.131 
13:05	84.1	84.1	86.4	55	66.2	3	7	90	0.00	30.131 
13:10	84.3	84.3	86.7	55	66.3	2	4	90	0.00	30.131 
13:15	84.1	84.1	86.2	54	65.6	2	7	112	0.00	30.127 
13:20	84.3	84.3	85.7	51	64.2	2	5	112	0.00	30.127 
13:25	84.7	84.7	87.0	54	66.2	2	5	90	0.00	30.127 
13:30	84.7	84.7	86.3	51	64.5	3	6	90	0.00	30.119 
13:35	84.9	84.9	87.1	53	65.8	2	4	112	0.00	30.119 
13:40	85.3	85.3	87.1	51	65.1	1	4	112	0.00	30.119 
13:45	85.3	85.3	87.4	52	65.6	2	6	90	0.00	30.116 
13:50	85.3	85.3	87.1	51	65.1	1	7	90	0.00	30.116 
13:55	85.5	85.5	87.2	50	64.7	1	5	135	0.00	30.116 
14:00	85.3	85.3	87.1	51	65.1	3	9	90	0.00	30.115 
14:05	85.1	85.1	86.4	49	63.8	2	7	90	0.00	30.115 
14:10	85.3	85.3	86.1	47	62.8	3	7	112	0.00	30.115 
14:15	85.3	85.3	87.1	51	65.1	3	6	90	0.00	30.117 
14:20	84.9	84.9	86.6	51	64.7	2	4	90	0.00	30.117 
14:25	84.9	84.9	86.1	49	63.6	1	6	112	0.00	30.117 
14:30	84.9	84.9	85.8	48	63.0	2	5	135	0.00	30.116 
14:35	85.1	85.1	86.4	49	63.8	2	6	135	0.00	30.116 
14:40	84.9	84.9	86.6	51	64.7	3	7	90	0.00	30.116 
14:45	84.5	84.5	86.3	52	64.9	1	6	90	0.00	30.113 
14:50	84.0	84.0	85.8	53	65.0	3	7	90	0.00	30.113 
14:55	84.1	84.1	85.3	50	63.4	3	9	90	0.00	30.113 
15:00	84.3	84.3	86.0	52	64.7	3	7	90	0.00	30.111 
15:05	84.7	84.7	85.8	49	63.4	3	6	90	0.00	30.111 
15:10	85.1	85.1	86.1	48	63.2	2	7	90	0.00	30.111 
15:15	84.9	84.9	86.1	49	63.6	3	6	90	0.00	30.108 
15:20	84.7	84.7	85.2	46	61.6	4	9	90	0.00	30.108 
15:25	84.9	84.9	85.4	46	61.8	3	6	68	0.00	30.108 
15:30	84.9	84.9	85.4	46	61.8	2	6	90	0.00	30.105 
15:35	84.5	84.5	85.6	49	63.2	2	3	68	0.00	30.105 
15:40	84.7	84.7	85.4	47	62.2	3	7	90	0.00	30.105 
15:45	85.1	85.1	85.7	46	62.0	3	7	112	0.00	30.103 
15:50	85.1	85.1	86.4	49	63.8	3	8	90	0.00	30.103 
15:55	85.1	85.1	86.4	49	63.8	3	6	112	0.00	30.103 
16:00	85.3	85.3	85.9	46	62.1	3	7	90	0.00	30.098 
16:05	85.3	85.3	86.4	48	63.4	3	6	90	0.00	30.098 
16:10	85.3	85.3	86.1	47	62.8	2	5	112	0.00	30.098 
16:15	85.5	85.5	86.4	47	62.9	2	6	112	0.00	30.096 
16:20	85.7	85.7	86.4	46	62.5	2	6	90	0.00	30.096 
16:25	85.5	85.5	85.5	43	60.4	2	5	112	0.00	30.096 
16:30	85.7	85.7	85.7	43	60.6	2	5	90	0.00	30.093 
16:35	85.7	85.7	85.7	43	60.6	2	7	90	0.00	30.093 
16:40	85.7	85.7	85.5	42	59.9	2	6	112	0.00	30.093 
16:45	85.5	85.5	85.3	42	59.8	3	6	90	0.00	30.090 
16:50	85.5	85.5	85.3	42	59.8	3	6	90	0.00	30.090 
16:55	85.3	85.3	85.0	42	59.6	3	7	112	0.00	30.090 
17:00	85.1	85.1	85.0	43	60.1	3	9	90	0.00	30.091 
17:05	85.3	85.3	85.7	45	61.5	2	5	112	0.00	30.091 
17:10	85.5	85.5	85.7	44	61.1	2	5	112	0.00	30.091 
17:15	85.1	85.1	85.0	43	60.1	2	6	112	0.00	30.089 
17:20	84.9	84.9	84.2	40	57.8	2	4	90	0.00	30.089 
17:25	84.9	84.9	84.8	43	59.9	2	6	68	0.00	30.089 
17:30	85.1	85.1	85.0	43	60.1	2	10	112	0.00	30.086 
17:35	85.1	85.1	84.4	40	58.0	3	10	90	0.00	30.086 
17:40	85.1	85.1	84.6	41	58.7	3	6	90	0.00	30.086 
17:45	84.9	84.9	84.6	42	59.2	3	10	90	0.00	30.084 
17:50	84.9	84.9	84.2	40	57.8	3	6	90	0.00	30.084 
17:55	84.7	84.7	84.2	41	58.4	3	7	90	0.00	30.084 
18:00	84.5	84.5	83.8	40	57.5	3	7	90	0.00	30.085 
18:05	84.3	84.3	83.9	42	58.7	3	6	90	0.00	30.085 
18:10	84.3	84.3	84.1	43	59.3	3	7	90	0.00	30.085 
18:15	84.0	84.0	83.4	41	57.7	4	9	90	0.00	30.082 
18:20	84.0	84.0	83.8	43	59.1	2	5	90	0.00	30.082 
18:25	83.8	83.8	83.1	40	56.9	3	7	112	0.00	30.082 
18:30	83.8	83.8	83.2	41	57.6	2	4	90	0.00	30.079 
18:35	83.6	83.6	83.0	41	57.4	3	7	112	0.00	30.079 
18:40	83.6	83.6	83.0	41	57.4	2	6	90	0.00	30.079 
18:45	83.6	83.6	83.4	43	58.7	2	5	90	0.00	30.076 
18:50	83.4	83.4	83.2	43	58.5	2	6	90	0.00	30.076 
18:55	83.4	83.4	83.2	43	58.5	3	7	90	0.00	30.076 
19:00	83.2	83.2	83.1	44	59.0	2	4	112	0.00	30.074 
19:05	83.0	83.0	83.4	47	60.7	2	5	112	0.00	30.074 
19:10	82.6	82.6	83.0	47	60.3	2	5	90	0.00	30.074 
19:15	82.4	82.4	83.0	49	61.3	1	3	90	0.00	30.073 
19:20	82.2	82.2	82.5	47	59.9	1	3	90	0.00	30.073 
19:25	82.0	82.0	82.2	46	59.1	2	6	68	0.00	30.073 
19:30	82.0	82.0	82.2	46	59.1	2	5	90	0.00	30.070 
19:35	82.0	82.0	82.3	47	59.8	1	4	90	0.00	30.070 
19:40	81.8	81.8	82.1	47	59.6	1	3	112	0.00	30.070 
19:45	81.6	81.6	82.1	48	60.0	1	3	112	0.00	30.068 
19:50	81.6	81.6	82.2	49	60.6	1	5	90	0.00	30.068 
19:55	81.4	81.4	82.0	49	60.4	1	3	90	0.00	30.068 
20:00	81.2	81.2	81.9	50	60.8	1	3	90	0.00	30.063 
20:05	81.1	81.1	82.0	51	61.2	1	2	90	0.00	30.063 
20:10	80.7	80.7	81.6	51	60.9	1	2	90	0.00	30.063 
20:15	80.5	80.5	81.4	51	60.7	1	4	68	0.00	30.059 
20:20	80.3	80.3	81.3	52	61.0	1	3	68	0.00	30.059 
20:25	80.1	80.1	81.2	53	61.4	1	3	90	0.00	30.059 
20:30	79.8	79.8	80.9	53	61.1	1	3	90	0.00	30.061 
20:35	79.6	79.6	80.8	54	61.5	2	6	90	0.00	30.061 
20:40	79.4	79.4	80.7	55	61.8	1	2	112	0.00	30.061 
20:45	79.0	79.0	80.3	55	61.4	1	2	112	0.00	30.064 
20:50	78.6	78.6	80.0	56	61.6	1	3	90	0.00	30.064 
20:55	78.5	78.5	79.9	56	61.5	1	3	90	0.00	30.064 
21:00	78.3	78.3	79.8	57	61.8	1	3	90	0.00	30.065 
21:05	77.9	77.9	79.5	58	61.9	0	2	90	0.00	30.065 
21:10	77.7	77.7	79.3	58	61.7	0	2	90	0.00	30.065 
21:15	77.4	77.4	79.1	58	61.4	0	1	90	0.00	30.067 
21:20	77.2	77.2	78.9	59	61.7	1	3	90	0.00	30.067 
21:25	77.0	77.0	78.8	59	61.6	1	3	90	0.00	30.067 
21:30	76.7	76.7	78.5	61	62.2	2	6	112	0.00	30.071 
21:35	76.5	76.5	78.4	62	62.5	2	4	90	0.00	30.071 
21:40	76.1	76.1	78.0	65	63.5	1	5	90	0.00	30.071 
21:45	75.8	75.8	77.7	66	63.6	2	5	112	0.00	30.073 
21:50	75.4	75.4	77.3	67	63.7	1	4	90	0.00	30.073 
21:55	75.1	75.1	76.9	69	64.2	1	6	90	0.00	30.073 
22:00	74.9	74.9	74.9	70	64.4	2	5	90	0.00	30.077 
22:05	74.7	74.7	74.7	71	64.7	1	4	90	0.00	30.077 
22:10	74.4	74.4	74.4	72	64.8	2	5	112	0.00	30.077 
22:15	74.2	74.2	74.2	72	64.6	2	5	90	0.00	30.079 
22:20	74.0	74.0	74.0	72	64.4	1	5	112	0.00	30.079 
22:25	73.9	73.9	73.9	73	64.7	1	4	135	0.00	30.079 
22:30	73.7	73.7	73.7	73	64.5	1	3	45	0.00	30.083 
22:35	73.5	73.5	73.5	73	64.3	2	5	90	0.00	30.083 
22:40	73.3	73.3	73.3	73	64.1	2	4	112	0.00	30.083 
22:45	73.3	73.3	73.3	73	64.1	1	5	112	0.00	30.086 
22:50	73.2	73.2	73.2	74	64.4	1	4	112	0.00	30.086 
22:55	73.0	73.0	73.0	75	64.6	1	3	112	0.00	30.086 
23:00	72.7	72.7	72.7	75	64.3	1	3	112	0.00	30.088 
23:05	72.5	72.5	72.5	76	64.5	2	4	112	0.00	30.088 
23:10	72.3	72.3	72.3	76	64.3	2	5	90	0.00	30.088 
23:15	72.1	72.1	72.1	77	64.5	2	5	112	0.00	30.086 
23:20	72.0	72.0	72.0	77	64.4	1	5	112	0.00	30.086 
23:25	71.8	71.8	71.8	77	64.2	2	5	68	0.00	30.086 
23:30	71.6	71.6	71.6	77	64.0	2	5	68	0.00	30.086 
23:35	71.5	71.5	71.5	78	64.3	1	4	90	0.00	30.086 
23:40	71.1	71.1	71.1	78	63.9	1	3	112	0.00	30.086 
23:45	70.9	70.9	70.9	79	64.1	1	4	112	0.00	30.085 
23:50	70.8	70.8	70.8	79	64.0	1	5	112	0.00	30.085 
23:55	70.6	70.6	70.6	80	64.1	1	3	68	0.00	30.085 

CoCoRaHS
IN-AL-39
A2 Web Hosting
Creative Commons License
GoDaddy
search engine by freefind advanced

loaded 2018-11-16 10:51:46 • last modified 2010-11-18 10:43:29
Privacy PolicyDisclaimer
• wx.awcolley.com is powered by PmWiki v.2002016 •
• all content (unless otherwise noted) © 2018 A W Colley